Terminal Aerodrome Forecast
Issued by NWS Springfield, MO

Home | Current Version | Previous Version | Text Only | Print | Product List | Glossary On
Versions: 1 2 3 4 5 6 7 8 9 10 11 12 13 14 15 16 17 18 19 20 21 22 23 24 25
000
FTUS43 KSGF 200500
TAFSGF
TAF
KSGF 200523Z 2006/2106 16006KT 6SM -RADZ BR OVC004
     FM200800 VRB03KT 3SM BR OVC004
      TEMPO 2010/2014 1SM BR OVC003
     FM201600 18005KT P6SM BKN008
     FM202100 19005KT P6SM OVC015
     FM210100 17005KT P6SM SCT030 SCT250=

USA.gov is the U.S. government's official web portal to all federal, state and local government web resources and services.